Time;durP1;ratioP1;P1;durP2;ratioP2;P2;SDS_P1;SDS_P2;PMS_P1;PMS_P2;Temp;Humidity;BMP_temperature;BMP_pressure;BME280_temperature;BME280_humidity;BME280_pressure;Samples;Min_cycle;Max_cycle;Signal;HPM_P1;HPM_P2
2023/09/14 00:18:24;;;;;;;5.88;5.25;;;;;;;;;;5086045;27;22876;-62
2023/09/14 00:20:52;;;;;;;9.00;5.60;;;;;;;;;;5092786;28;20312;-63
2023/09/14 00:23:19;;;;;;;9.68;5.20;;;;;;;;;;5088068;28;20225;-63
2023/09/14 00:25:45;;;;;;;5.80;5.22;;;;;;;;;;5093127;28;20675;-62
2023/09/14 00:28:12;;;;;;;10.85;5.90;;;;;;;;;;5094306;28;20743;-62
2023/09/14 00:30:38;;;;;;;10.48;6.50;;;;;;;;;;5093643;28;20240;-62
2023/09/14 00:33:05;;;;;;;6.68;5.53;;;;;;;;;;5093341;28;20220;-62
2023/09/14 00:35:32;;;;;;;7.78;5.60;;;;;;;;;;5093633;28;20256;-62
2023/09/14 00:37:59;;;;;;;10.63;6.00;;;;;;;;;;5096850;28;20209;-62
2023/09/14 00:40:26;;;;;;;6.43;5.82;;;;;;;;;;5093633;28;21820;-63
2023/09/14 00:42:52;;;;;;;6.10;5.60;;;;;;;;;;5089074;28;20201;-62
2023/09/14 00:45:20;;;;;;;7.20;5.97;;;;;;;;;;5091981;28;20649;-63
2023/09/14 00:47:47;;;;;;;8.65;5.60;;;;;;;;;;5087236;28;20679;-62
2023/09/14 00:50:15;;;;;;;6.82;4.68;;;;;;;;;;5088978;28;20302;-62
2023/09/14 00:52:44;;;;;;;8.55;5.43;;;;;;;;;;5091041;28;20239;-61
2023/09/14 00:55:10;;;;;;;6.00;5.25;;;;;;;;;;5085877;28;20217;-62
2023/09/14 00:57:37;;;;;;;5.45;4.93;;;;;;;;;;5091827;28;20197;-62
2023/09/14 01:00:05;;;;;;;8.32;4.70;;;;;;;;;;5091053;28;20207;-63
2023/09/14 01:02:33;;;;;;;6.20;5.43;;;;;;;;;;5089056;28;20296;-62
2023/09/14 01:05:00;;;;;;;9.20;4.85;;;;;;;;;;5094082;28;20278;-63
2023/09/14 01:07:26;;;;;;;6.78;5.18;;;;;;;;;;5090947;28;20285;-61
2023/09/14 01:09:54;;;;;;;5.93;4.78;;;;;;;;;;5093174;28;20200;-64
2023/09/14 01:12:20;;;;;;;8.05;5.07;;;;;;;;;;5088980;28;20719;-62
2023/09/14 01:14:51;;;;;;;9.40;5.53;;;;;;;;;;5091846;28;20698;-62
2023/09/14 01:17:21;;;;;;;7.72;4.80;;;;;;;;;;5090920;28;20262;-62
2023/09/14 01:19:56;;;;;;;5.50;5.00;;;;;;;;;;5088648;28;20670;-62
2023/09/14 01:22:25;;;;;;;11.45;5.88;;;;;;;;;;5094405;28;20623;-63
2023/09/14 01:24:54;;;;;;;5.38;4.85;;;;;;;;;;5087323;28;20228;-61
2023/09/14 01:27:22;;;;;;;6.85;4.82;;;;;;;;;;5088130;28;20232;-62
2023/09/14 01:29:49;;;;;;;14.73;5.47;;;;;;;;;;5093695;28;20232;-62
2023/09/14 01:32:15;;;;;;;12.00;5.47;;;;;;;;;;5091476;28;20619;-62
2023/09/14 01:34:42;;;;;;;8.65;4.65;;;;;;;;;;5090310;28;20237;-62
2023/09/14 01:37:08;;;;;;;7.68;5.25;;;;;;;;;;5089560;28;20718;-63
2023/09/14 01:39:35;;;;;;;6.57;5.80;;;;;;;;;;5089295;28;20695;-62
2023/09/14 01:42:02;;;;;;;5.93;5.20;;;;;;;;;;5089091;28;20198;-62
2023/09/14 01:44:31;;;;;;;9.02;4.90;;;;;;;;;;5090166;28;20554;-62
2023/09/14 01:46:57;;;;;;;5.13;4.70;;;;;;;;;;5090452;28;20197;-63
2023/09/14 01:49:24;;;;;;;12.25;5.03;;;;;;;;;;5089706;28;20236;-62
2023/09/14 01:51:50;;;;;;;5.00;4.57;;;;;;;;;;5088839;28;20229;-63
2023/09/14 01:54:17;;;;;;;5.95;4.95;;;;;;;;;;5087572;28;20214;-62
2023/09/14 01:56:43;;;;;;;6.55;5.38;;;;;;;;;;5089831;28;20205;-63
2023/09/14 01:59:09;;;;;;;12.20;5.55;;;;;;;;;;5097865;28;20306;-63
2023/09/14 02:01:37;;;;;;;8.52;5.25;;;;;;;;;;5097842;28;20743;-62
2023/09/14 02:04:04;;;;;;;6.85;4.40;;;;;;;;;;5091222;28;20298;-62
2023/09/14 02:06:30;;;;;;;9.48;5.22;;;;;;;;;;5091008;28;20293;-63
2023/09/14 02:08:57;;;;;;;8.43;5.22;;;;;;;;;;5095018;28;20270;-62
2023/09/14 02:11:23;;;;;;;6.10;5.10;;;;;;;;;;5095867;28;20314;-61
2023/09/14 02:13:50;;;;;;;6.50;5.22;;;;;;;;;;5096645;28;20274;-61
2023/09/14 02:16:17;;;;;;;8.40;5.07;;;;;;;;;;5096311;28;20741;-62
2023/09/14 02:18:45;;;;;;;8.43;5.72;;;;;;;;;;5090941;28;20205;-62
2023/09/14 02:21:12;;;;;;;6.78;5.20;;;;;;;;;;5093235;28;20215;-62
2023/09/14 02:23:39;;;;;;;5.63;4.97;;;;;;;;;;5095107;28;20658;-61
2023/09/14 02:26:05;;;;;;;7.55;5.55;;;;;;;;;;5103282;28;20200;-63
2023/09/14 02:28:32;;;;;;;10.50;5.45;;;;;;;;;;5095024;28;20229;-62
2023/09/14 02:30:58;;;;;;;11.10;5.57;;;;;;;;;;5093281;28;20675;-62
2023/09/14 02:33:24;;;;;;;10.80;6.28;;;;;;;;;;5096001;28;20301;-62
2023/09/14 02:35:52;;;;;;;5.90;5.22;;;;;;;;;;5095410;28;20803;-63
2023/09/14 02:38:19;;;;;;;11.20;5.30;;;;;;;;;;5093147;28;20671;-62
2023/09/14 02:40:45;;;;;;;9.50;6.05;;;;;;;;;;5099741;28;20235;-62
2023/09/14 02:43:11;;;;;;;8.40;5.53;;;;;;;;;;5091455;28;20288;-62
2023/09/14 02:45:38;;;;;;;7.18;6.55;;;;;;;;;;5091855;28;20229;-63
2023/09/14 02:48:04;;;;;;;9.98;5.93;;;;;;;;;;5093960;28;20225;-62
2023/09/14 02:50:31;;;;;;;12.00;6.25;;;;;;;;;;5093346;28;20205;-62
2023/09/14 02:52:59;;;;;;;9.32;5.63;;;;;;;;;;5099087;28;20244;-60
2023/09/14 02:55:25;;;;;;;13.38;6.95;;;;;;;;;;5091345;28;20244;-61
2023/09/14 02:57:52;;;;;;;10.20;6.35;;;;;;;;;;5095821;28;20197;-61
2023/09/14 03:00:18;;;;;;;6.88;6.22;;;;;;;;;;5092668;28;20206;-62
2023/09/14 03:02:45;;;;;;;10.43;6.68;;;;;;;;;;5095510;28;20189;-61
2023/09/14 03:05:11;;;;;;;6.55;5.18;;;;;;;;;;5090643;28;20217;-62
2023/09/14 03:07:38;;;;;;;10.98;6.28;;;;;;;;;;5095868;28;20229;-61
2023/09/14 03:10:07;;;;;;;10.48;5.65;;;;;;;;;;5091649;28;20204;-63
2023/09/14 03:12:33;;;;;;;9.50;5.95;;;;;;;;;;5095084;28;20249;-62
2023/09/14 03:14:59;;;;;;;9.77;6.18;;;;;;;;;;5089247;28;20193;-62
2023/09/14 03:17:26;;;;;;;8.13;6.15;;;;;;;;;;5093486;28;20233;-63
2023/09/14 03:19:53;;;;;;;13.25;5.68;;;;;;;;;;5095759;28;20220;-61
2023/09/14 03:22:19;;;;;;;18.35;7.05;;;;;;;;;;5097371;28;20194;-62
2023/09/14 03:24:46;;;;;;;6.70;6.10;;;;;;;;;;5093941;28;20225;-62
2023/09/14 03:27:13;;;;;;;9.38;6.35;;;;;;;;;;5089884;28;20310;-61
2023/09/14 03:29:40;;;;;;;15.73;5.85;;;;;;;;;;5091003;28;20279;-61
2023/09/14 03:32:07;;;;;;;10.60;5.90;;;;;;;;;;5092399;28;20202;-62
2023/09/14 03:34:33;;;;;;;11.13;6.75;;;;;;;;;;5095093;28;20231;-62
2023/09/14 03:36:59;;;;;;;11.40;6.50;;;;;;;;;;5097683;28;20288;-62
2023/09/14 03:39:26;;;;;;;16.83;7.82;;;;;;;;;;5103446;28;20201;-62
2023/09/14 03:41:52;;;;;;;10.52;8.07;;;;;;;;;;5104819;28;20201;-62
2023/09/14 03:44:20;;;;;;;15.32;8.25;;;;;;;;;;5090716;28;20205;-62
2023/09/14 03:46:46;;;;;;;14.63;7.65;;;;;;;;;;5099006;28;20200;-62
2023/09/14 03:49:13;;;;;;;18.27;7.30;;;;;;;;;;5104008;28;20235;-62
2023/09/14 03:51:39;;;;;;;8.02;6.90;;;;;;;;;;5103318;28;20209;-61
2023/09/14 03:54:06;;;;;;;13.45;8.05;;;;;;;;;;5099006;28;20285;-61
2023/09/14 03:56:32;;;;;;;28.90;19.73;;;;;;;;;;5100266;28;20356;-61
2023/09/14 03:58:59;;;;;;;26.88;18.23;;;;;;;;;;5103866;28;20216;-63
2023/09/14 04:01:27;;;;;;;29.63;18.90;;;;;;;;;;5103384;28;20342;-62
2023/09/14 04:03:53;;;;;;;22.85;13.35;;;;;;;;;;5102795;28;20192;-63
2023/09/14 04:06:20;;;;;;;12.10;8.75;;;;;;;;;;5102775;28;20209;-63
2023/09/14 04:08:46;;;;;;;11.20;6.97;;;;;;;;;;5104400;28;20219;-64
2023/09/14 04:11:12;;;;;;;15.10;7.15;;;;;;;;;;5103626;28;20262;-63
2023/09/14 04:13:39;;;;;;;13.85;6.93;;;;;;;;;;5095876;28;20318;-61
2023/09/14 04:16:06;;;;;;;13.55;7.40;;;;;;;;;;5089517;28;20208;-61
2023/09/14 04:18:35;;;;;;;17.00;6.55;;;;;;;;;;5100605;28;20250;-64
2023/09/14 04:21:02;;;;;;;10.40;6.63;;;;;;;;;;5104159;28;20227;-62
2023/09/14 04:23:28;;;;;;;12.70;7.68;;;;;;;;;;5103282;28;20250;-62
2023/09/14 04:25:55;;;;;;;10.73;6.80;;;;;;;;;;5098446;28;20232;-62
2023/09/14 04:28:22;;;;;;;8.63;7.68;;;;;;;;;;5093005;28;20675;-62
2023/09/14 04:30:49;;;;;;;15.43;7.72;;;;;;;;;;5090878;28;20279;-62
2023/09/14 04:33:16;;;;;;;14.50;7.18;;;;;;;;;;5101499;28;20731;-64
2023/09/14 04:35:44;;;;;;;14.98;8.05;;;;;;;;;;5103118;28;20237;-63
2023/09/14 04:38:11;;;;;;;45.22;27.02;;;;;;;;;;5101541;28;20653;-63
2023/09/14 04:40:38;;;;;;;18.08;11.13;;;;;;;;;;5094850;28;20250;-61
2023/09/14 04:43:04;;;;;;;25.23;10.57;;;;;;;;;;5094048;28;20615;-62
2023/09/14 04:45:31;;;;;;;15.45;9.07;;;;;;;;;;5100765;28;20228;-63
2023/09/14 04:47:57;;;;;;;22.63;10.35;;;;;;;;;;5091087;28;20240;-62
2023/09/14 04:50:24;;;;;;;21.02;8.85;;;;;;;;;;5091680;28;20697;-63
2023/09/14 04:52:52;;;;;;;16.70;7.47;;;;;;;;;;5089505;28;20686;-63
2023/09/14 04:55:18;;;;;;;19.25;8.25;;;;;;;;;;5096904;28;20194;-63
2023/09/14 04:57:45;;;;;;;11.07;7.95;;;;;;;;;;5089487;28;20208;-64
2023/09/14 05:00:12;;;;;;;20.83;8.38;;;;;;;;;;5091084;28;20229;-62
2023/09/14 05:02:38;;;;;;;12.52;8.00;;;;;;;;;;5095624;28;20281;-63
2023/09/14 05:05:06;;;;;;;16.48;9.32;;;;;;;;;;5093222;28;20198;-63
2023/09/14 05:07:32;;;;;;;11.63;8.32;;;;;;;;;;5098513;28;20262;-64
2023/09/14 05:10:00;;;;;;;25.50;9.90;;;;;;;;;;5089268;28;20650;-62
2023/09/14 05:12:28;;;;;;;21.70;10.20;;;;;;;;;;5090219;28;20295;-62
2023/09/14 05:14:54;;;;;;;20.33;10.25;;;;;;;;;;5092490;28;20223;-63
2023/09/14 05:17:20;;;;;;;14.75;10.68;;;;;;;;;;5091542;28;20225;-63
2023/09/14 05:19:47;;;;;;;15.88;10.68;;;;;;;;;;5093069;28;20205;-63
2023/09/14 05:22:13;;;;;;;14.77;9.73;;;;;;;;;;5090517;28;20205;-63
2023/09/14 05:24:40;;;;;;;15.35;9.02;;;;;;;;;;5093624;28;20229;-62
2023/09/14 05:27:08;;;;;;;11.98;7.80;;;;;;;;;;5094165;28;20243;-62
2023/09/14 05:29:34;;;;;;;18.52;9.13;;;;;;;;;;5091448;28;20228;-62
2023/09/14 05:32:00;;;;;;;13.80;8.68;;;;;;;;;;5088580;28;20231;-62
2023/09/14 05:34:27;;;;;;;12.88;9.60;;;;;;;;;;5091903;28;20619;-63
2023/09/14 05:36:53;;;;;;;10.77;8.85;;;;;;;;;;5092263;28;20638;-62
2023/09/14 05:39:20;;;;;;;19.60;9.15;;;;;;;;;;5091380;28;20576;-64
2023/09/14 05:41:47;;;;;;;16.10;9.23;;;;;;;;;;5094412;28;20201;-64
2023/09/14 05:44:15;;;;;;;12.52;8.50;;;;;;;;;;5095974;28;20599;-64
2023/09/14 05:46:41;;;;;;;17.38;7.72;;;;;;;;;;5096612;28;20205;-64
2023/09/14 05:49:08;;;;;;;13.73;7.35;;;;;;;;;;5098018;28;20726;-63
2023/09/14 05:51:34;;;;;;;13.20;7.22;;;;;;;;;;5099950;28;20200;-63
2023/09/14 05:54:01;;;;;;;13.23;6.93;;;;;;;;;;5094133;28;20222;-63
2023/09/14 05:56:27;;;;;;;21.92;7.32;;;;;;;;;;5094531;28;20233;-63
2023/09/14 05:58:54;;;;;;;14.35;6.22;;;;;;;;;;5093358;28;20201;-62
2023/09/14 06:01:22;;;;;;;12.85;7.00;;;;;;;;;;5094765;28;20192;-62
2023/09/14 06:03:48;;;;;;;11.20;6.88;;;;;;;;;;5097509;28;20248;-64
2023/09/14 06:06:15;;;;;;;16.05;6.72;;;;;;;;;;5098326;28;20225;-61
2023/09/14 06:08:41;;;;;;;11.63;6.55;;;;;;;;;;5096292;28;20293;-62
2023/09/14 06:11:08;;;;;;;16.30;6.95;;;;;;;;;;5099167;28;20229;-64
2023/09/14 06:13:34;;;;;;;15.25;7.75;;;;;;;;;;5095809;28;20256;-64
2023/09/14 06:16:01;;;;;;;9.50;6.30;;;;;;;;;;5095409;28;20201;-63
2023/09/14 06:18:29;;;;;;;15.77;6.50;;;;;;;;;;5093484;28;20651;-63
2023/09/14 06:20:55;;;;;;;13.73;6.47;;;;;;;;;;5094716;28;20238;-63
2023/09/14 06:23:21;;;;;;;16.80;7.03;;;;;;;;;;5102690;28;20701;-63
2023/09/14 06:25:51;;;;;;;19.90;6.85;;;;;;;;;;5100162;28;20269;-63
2023/09/14 06:28:17;;;;;;;14.45;6.70;;;;;;;;;;5095175;28;20294;-64
2023/09/14 06:30:44;;;;;;;10.82;7.40;;;;;;;;;;5098687;28;20201;-63
2023/09/14 06:33:10;;;;;;;8.88;6.78;;;;;;;;;;5091804;28;20193;-64
2023/09/14 06:35:38;;;;;;;16.50;8.13;;;;;;;;;;5093968;28;20267;-64
2023/09/14 06:38:04;;;;;;;13.60;7.80;;;;;;;;;;5095067;28;20236;-64
2023/09/14 06:40:31;;;;;;;14.20;6.45;;;;;;;;;;5097504;28;20198;-64
2023/09/14 06:42:57;;;;;;;17.52;6.85;;;;;;;;;;5095096;28;20290;-64
2023/09/14 06:45:24;;;;;;;20.02;6.05;;;;;;;;;;5098510;28;20197;-64
2023/09/14 06:47:50;;;;;;;8.73;5.93;;;;;;;;;;5097520;28;20200;-63
2023/09/14 06:50:17;;;;;;;18.70;6.10;;;;;;;;;;5103600;28;20197;-64
2023/09/14 06:52:44;;;;;;;20.02;6.45;;;;;;;;;;5093736;28;20246;-63
2023/09/14 06:55:11;;;;;;;14.18;6.85;;;;;;;;;;5092895;28;20221;-63
2023/09/14 06:57:37;;;;;;;12.65;6.30;;;;;;;;;;5093466;28;20582;-65
2023/09/14 07:00:14;;;;;;;9.15;6.20;;;;;;;;;;5095531;28;20196;-65
2023/09/14 07:02:41;;;;;;;15.30;6.70;;;;;;;;;;5097720;28;20201;-65
2023/09/14 07:05:08;;;;;;;15.10;6.40;;;;;;;;;;5092215;28;20263;-65
2023/09/14 07:07:34;;;;;;;15.48;6.00;;;;;;;;;;5093014;28;20194;-65
2023/09/14 07:10:02;;;;;;;11.77;6.03;;;;;;;;;;5094119;28;20228;-65
2023/09/14 07:12:28;;;;;;;17.40;7.05;;;;;;;;;;5096659;28;20257;-65
2023/09/14 07:14:55;;;;;;;14.80;6.35;;;;;;;;;;5097434;28;20220;-65
2023/09/14 07:17:21;;;;;;;18.05;6.32;;;;;;;;;;5100360;28;20194;-65
2023/09/14 07:19:48;;;;;;;22.42;5.95;;;;;;;;;;5098822;28;20205;-63
2023/09/14 07:22:14;;;;;;;13.27;5.28;;;;;;;;;;5093530;28;20269;-64
2023/09/14 07:24:41;;;;;;;13.35;4.75;;;;;;;;;;5093963;28;20205;-64
2023/09/14 07:27:08;;;;;;;12.50;5.65;;;;;;;;;;5095382;28;20229;-65
2023/09/14 07:29:35;;;;;;;12.90;5.72;;;;;;;;;;5094330;28;20255;-65
2023/09/14 07:32:02;;;;;;;13.45;5.82;;;;;;;;;;5090887;28;20285;-65
2023/09/14 07:34:28;;;;;;;17.88;6.57;;;;;;;;;;5090446;28;20352;-64
2023/09/14 07:36:55;;;;;;;14.05;6.07;;;;;;;;;;5094692;28;20232;-63
2023/09/14 07:39:21;;;;;;;8.57;5.05;;;;;;;;;;5093870;28;20293;-63
2023/09/14 07:41:48;;;;;;;18.42;7.60;;;;;;;;;;5092568;28;20232;-64
2023/09/14 07:44:15;;;;;;;21.70;8.10;;;;;;;;;;5090422;28;20677;-64
2023/09/14 07:46:42;;;;;;;19.20;8.13;;;;;;;;;;5097497;28;20724;-66
2023/09/14 07:49:08;;;;;;;13.32;6.75;;;;;;;;;;5101134;28;20201;-64
2023/09/14 07:51:35;;;;;;;26.27;10.05;;;;;;;;;;5097474;28;20289;-65
2023/09/14 07:54:01;;;;;;;20.23;6.65;;;;;;;;;;5092582;28;20741;-65
2023/09/14 07:56:28;;;;;;;14.77;6.22;;;;;;;;;;5095821;28;20627;-66
2023/09/14 07:58:55;;;;;;;29.08;6.90;;;;;;;;;;5092321;28;20224;-64
2023/09/14 08:01:23;;;;;;;18.42;5.78;;;;;;;;;;5093571;28;20201;-67
2023/09/14 08:03:49;;;;;;;10.85;4.30;;;;;;;;;;5095852;28;20292;-65
2023/09/14 08:06:18;;;;;;;12.85;5.13;;;;;;;;;;5092142;28;20620;-65
2023/09/14 08:08:45;;;;;;;12.32;5.30;;;;;;;;;;5092569;28;20334;-65
2023/09/14 08:11:12;;;;;;;11.85;5.85;;;;;;;;;;5091560;28;20258;-64
2023/09/14 08:13:38;;;;;;;10.88;5.90;;;;;;;;;;5083942;28;20197;-64
2023/09/14 08:16:05;;;;;;;16.10;5.10;;;;;;;;;;5095236;28;20288;-64
2023/09/14 08:18:33;;;;;;;12.98;5.68;;;;;;;;;;5092928;28;20198;-65
2023/09/14 08:21:00;;;;;;;18.55;5.90;;;;;;;;;;5093889;28;20200;-64
2023/09/14 08:23:27;;;;;;;11.23;6.10;;;;;;;;;;5091337;28;20299;-68
2023/09/14 08:25:54;;;;;;;8.20;5.60;;;;;;;;;;5092326;28;20553;-69
2023/09/14 08:28:21;;;;;;;12.90;5.40;;;;;;;;;;5093279;28;20249;-69
2023/09/14 08:30:48;;;;;;;11.05;5.30;;;;;;;;;;5091160;28;20498;-70
2023/09/14 08:33:15;;;;;;;19.75;5.20;;;;;;;;;;5094650;28;20233;-68
2023/09/14 08:35:44;;;;;;;13.25;5.40;;;;;;;;;;5095833;28;20241;-68
2023/09/14 08:38:11;;;;;;;12.95;5.50;;;;;;;;;;5090340;28;20197;-68
2023/09/14 08:40:37;;;;;;;56.38;41.53;;;;;;;;;;5093322;28;20694;-66
2023/09/14 08:43:07;;;;;;;30.55;18.08;;;;;;;;;;5090358;28;20229;-66
2023/09/14 08:45:34;;;;;;;22.50;15.93;;;;;;;;;;5093602;28;20372;-66
2023/09/14 08:48:02;;;;;;;33.85;25.67;;;;;;;;;;5098623;28;20220;-66
2023/09/14 08:50:30;;;;;;;21.27;14.45;;;;;;;;;;5092953;28;20254;-64
2023/09/14 08:52:58;;;;;;;10.95;7.53;;;;;;;;;;5095325;28;20273;-66
2023/09/14 08:55:25;;;;;;;9.10;5.55;;;;;;;;;;5093517;28;20340;-66
2023/09/14 08:57:52;;;;;;;11.40;6.53;;;;;;;;;;5093368;28;20228;-66
2023/09/14 09:00:19;;;;;;;14.25;5.68;;;;;;;;;;5092100;28;20566;-66
2023/09/14 09:02:46;;;;;;;12.15;4.85;;;;;;;;;;5088043;28;20643;-66
2023/09/14 09:05:14;;;;;;;12.95;5.38;;;;;;;;;;5090479;28;20263;-65
2023/09/14 09:07:41;;;;;;;17.35;5.05;;;;;;;;;;5095405;28;20205;-66
2023/09/14 09:10:12;;;;;;;13.82;5.63;;;;;;;;;;5093990;28;20260;-66
2023/09/14 09:12:38;;;;;;;9.10;5.05;;;;;;;;;;5093229;28;20251;-65
2023/09/14 09:15:06;;;;;;;13.88;5.45;;;;;;;;;;5092310;28;20312;-66
2023/09/14 09:17:37;;;;;;;6.72;4.60;;;;;;;;;;5094067;28;20665;-65
2023/09/14 09:20:12;;;;;;;11.77;5.55;;;;;;;;;;5101647;28;20290;-66
2023/09/14 09:22:40;;;;;;;12.20;5.88;;;;;;;;;;5093072;28;20207;-65
2023/09/14 09:25:06;;;;;;;13.35;4.82;;;;;;;;;;5098853;28;20193;-65
2023/09/14 09:27:34;;;;;;;13.70;6.40;;;;;;;;;;5095637;28;20305;-65
2023/09/14 09:30:01;;;;;;;17.42;5.82;;;;;;;;;;5096073;28;20193;-65
2023/09/14 09:32:27;;;;;;;6.95;4.88;;;;;;;;;;5100809;28;20266;-64
2023/09/14 09:34:54;;;;;;;11.70;5.40;;;;;;;;;;5078827;28;20229;-65
2023/09/14 09:37:21;;;;;;;9.95;4.53;;;;;;;;;;5094812;28;20258;-65
2023/09/14 09:39:47;;;;;;;18.27;4.90;;;;;;;;;;5096898;28;20201;-64
2023/09/14 09:42:14;;;;;;;10.15;5.68;;;;;;;;;;5095445;28;20205;-66
2023/09/14 09:44:42;;;;;;;12.13;5.75;;;;;;;;;;5098778;28;20224;-66
2023/09/14 09:47:12;;;;;;;9.57;5.43;;;;;;;;;;5100911;28;20640;-66
2023/09/14 09:49:40;;;;;;;14.57;4.93;;;;;;;;;;5097773;28;20213;-66
2023/09/14 09:52:09;;;;;;;11.68;5.07;;;;;;;;;;5101017;28;20770;-66
2023/09/14 09:54:36;;;;;;;11.20;5.05;;;;;;;;;;5094991;28;20278;-66
2023/09/14 09:57:03;;;;;;;14.75;6.50;;;;;;;;;;5095230;28;20236;-65
2023/09/14 09:59:30;;;;;;;16.70;7.45;;;;;;;;;;5096537;28;20362;-65
2023/09/14 10:01:58;;;;;;;10.65;5.32;;;;;;;;;;5100237;28;20604;-65
2023/09/14 10:04:27;;;;;;;14.07;5.05;;;;;;;;;;5099397;28;21618;-65
2023/09/14 10:06:55;;;;;;;7.97;5.40;;;;;;;;;;5096350;28;20205;-66
2023/09/14 10:09:22;;;;;;;7.88;5.72;;;;;;;;;;5096066;28;20197;-65
2023/09/14 10:11:51;;;;;;;14.90;5.82;;;;;;;;;;5093583;28;20232;-65
2023/09/14 10:14:19;;;;;;;15.05;7.00;;;;;;;;;;5096109;28;20706;-65
2023/09/14 10:16:45;;;;;;;10.82;5.40;;;;;;;;;;5098190;28;20208;-66
2023/09/14 10:19:14;;;;;;;8.88;6.25;;;;;;;;;;5092814;28;20233;-65
2023/09/14 10:21:41;;;;;;;9.98;5.78;;;;;;;;;;5095502;28;20200;-65
2023/09/14 10:24:08;;;;;;;11.95;6.22;;;;;;;;;;5097097;28;20690;-64
2023/09/14 10:26:36;;;;;;;9.25;5.10;;;;;;;;;;5095214;28;20202;-65
2023/09/14 10:29:04;;;;;;;7.75;5.20;;;;;;;;;;5098044;28;20212;-65
2023/09/14 10:31:31;;;;;;;10.10;4.35;;;;;;;;;;5095458;28;20201;-65
2023/09/14 10:33:59;;;;;;;7.13;4.35;;;;;;;;;;5100723;28;20209;-65
2023/09/14 10:36:29;;;;;;;13.00;4.88;;;;;;;;;;5093610;28;20334;-66
2023/09/14 10:38:55;;;;;;;9.27;5.07;;;;;;;;;;5092924;28;20743;-66
2023/09/14 10:41:23;;;;;;;11.50;4.40;;;;;;;;;;5092815;28;20225;-65
2023/09/14 10:43:50;;;;;;;7.97;4.75;;;;;;;;;;5093594;28;20672;-65
2023/09/14 10:46:18;;;;;;;7.80;4.53;;;;;;;;;;5095990;28;20205;-65
2023/09/14 10:48:47;;;;;;;6.60;4.20;;;;;;;;;;5094563;28;20241;-65
2023/09/14 10:51:14;;;;;;;10.07;5.00;;;;;;;;;;5092648;28;20216;-65
2023/09/14 10:53:43;;;;;;;14.68;4.78;;;;;;;;;;5094598;28;20244;-64
2023/09/14 10:56:21;;;;;;;12.10;4.50;;;;;;;;;;5093488;28;20262;-64
2023/09/14 10:58:50;;;;;;;5.90;3.85;;;;;;;;;;5094879;28;20221;-65
2023/09/14 11:01:23;;;;;;;10.90;4.45;;;;;;;;;;5096697;28;20197;-65
2023/09/14 11:04:08;;;;;;;10.63;4.60;;;;;;;;;;5097947;28;20209;-65
2023/09/14 11:06:41;;;;;;;14.07;4.57;;;;;;;;;;5101899;28;20729;-65
2023/09/14 11:09:09;;;;;;;6.25;4.05;;;;;;;;;;5095190;28;20201;-65
2023/09/14 11:11:38;;;;;;;7.22;4.60;;;;;;;;;;5095044;28;20628;-65
2023/09/14 11:14:07;;;;;;;9.02;4.85;;;;;;;;;;5096323;28;20266;-65
2023/09/14 11:16:41;;;;;;;8.25;4.28;;;;;;;;;;5093838;28;20245;-64
2023/09/14 11:19:08;;;;;;;8.48;5.18;;;;;;;;;;5088243;28;20201;-64
2023/09/14 11:21:43;;;;;;;7.65;5.28;;;;;;;;;;5095682;28;20193;-66
2023/09/14 11:24:12;;;;;;;9.13;5.10;;;;;;;;;;5094547;28;20589;-66
2023/09/14 11:26:44;;;;;;;5.78;4.55;;;;;;;;;;5098128;28;20560;-66
2023/09/14 11:29:11;;;;;;;12.77;5.10;;;;;;;;;;5092414;28;20194;-65
2023/09/14 11:31:39;;;;;;;6.40;4.90;;;;;;;;;;5097380;28;20257;-66
2023/09/14 11:34:06;;;;;;;12.98;4.10;;;;;;;;;;5097784;28;20240;-66
2023/09/14 11:36:33;;;;;;;15.02;5.72;;;;;;;;;;5092594;28;20224;-66
2023/09/14 11:39:00;;;;;;;11.85;5.35;;;;;;;;;;5098041;28;20209;-65
2023/09/14 11:41:57;;;;;;;6.72;4.82;;;;;;;;;;5100713;28;20288;-66
2023/09/14 11:44:28;;;;;;;15.27;4.55;;;;;;;;;;5092381;28;20197;-66
2023/09/14 11:46:55;;;;;;;8.90;4.22;;;;;;;;;;5098361;28;20193;-65
2023/09/14 11:49:23;;;;;;;17.05;5.68;;;;;;;;;;5104781;28;20221;-66
2023/09/14 11:51:52;;;;;;;4.32;3.85;;;;;;;;;;5100922;28;20262;-65
2023/09/14 11:54:19;;;;;;;5.75;4.65;;;;;;;;;;5095724;28;20228;-66
2023/09/14 11:56:48;;;;;;;7.43;4.43;;;;;;;;;;5095029;28;20235;-65
2023/09/14 11:59:27;;;;;;;5.78;4.60;;;;;;;;;;5092186;28;20679;-65
2023/09/14 12:01:54;;;;;;;9.18;5.10;;;;;;;;;;5100391;28;20236;-65
2023/09/14 12:04:20;;;;;;;13.02;5.00;;;;;;;;;;5093793;28;20213;-65
2023/09/14 12:06:47;;;;;;;9.13;4.30;;;;;;;;;;5094993;28;20212;-66
2023/09/14 12:09:13;;;;;;;8.30;5.22;;;;;;;;;;5093375;28;20293;-66
2023/09/14 12:11:42;;;;;;;9.15;4.63;;;;;;;;;;5092449;28;20209;-65
2023/09/14 12:14:10;;;;;;;5.82;4.55;;;;;;;;;;5092930;28;20293;-65
2023/09/14 12:16:38;;;;;;;6.57;4.57;;;;;;;;;;5094153;28;20221;-64
2023/09/14 12:19:04;;;;;;;11.65;4.85;;;;;;;;;;5097665;28;20318;-65
2023/09/14 12:21:31;;;;;;;6.82;4.65;;;;;;;;;;5090183;28;20201;-65
2023/09/14 12:23:59;;;;;;;6.15;4.35;;;;;;;;;;5094360;28;20205;-64
2023/09/14 12:26:25;;;;;;;7.07;4.50;;;;;;;;;;5097807;28;20731;-65
2023/09/14 12:28:53;;;;;;;6.13;4.55;;;;;;;;;;5093802;28;20207;-66
2023/09/14 12:31:21;;;;;;;7.25;4.03;;;;;;;;;;5098078;28;20197;-66
2023/09/14 12:33:48;;;;;;;6.47;4.85;;;;;;;;;;5083559;28;20322;-66
2023/09/14 12:36:18;;;;;;;6.25;4.90;;;;;;;;;;5082555;28;20794;-66
2023/09/14 12:38:44;;;;;;;6.30;5.13;;;;;;;;;;5089147;28;20221;-64
2023/09/14 12:41:12;;;;;;;8.48;4.90;;;;;;;;;;5093258;28;20224;-64
2023/09/14 12:43:38;;;;;;;8.57;4.82;;;;;;;;;;5094224;28;20228;-65
2023/09/14 12:46:05;;;;;;;8.30;4.50;;;;;;;;;;5091773;28;20193;-65
2023/09/14 12:48:33;;;;;;;5.85;4.13;;;;;;;;;;5092274;28;20218;-65
2023/09/14 12:50:59;;;;;;;8.48;4.82;;;;;;;;;;5090477;28;20233;-65
2023/09/14 12:53:26;;;;;;;8.40;5.10;;;;;;;;;;5092503;28;20674;-64
2023/09/14 12:55:54;;;;;;;7.28;4.43;;;;;;;;;;5096054;28;20217;-64
2023/09/14 12:58:20;;;;;;;7.57;4.53;;;;;;;;;;5089529;28;20563;-65
2023/09/14 13:00:47;;;;;;;9.90;5.20;;;;;;;;;;5095198;28;20217;-65
2023/09/14 13:03:17;;;;;;;6.80;5.05;;;;;;;;;;5096976;28;20217;-66
2023/09/14 13:05:46;;;;;;;5.68;4.88;;;;;;;;;;5093100;28;20205;-66
2023/09/14 13:08:12;;;;;;;11.68;4.95;;;;;;;;;;5094969;28;20204;-65
2023/09/14 13:10:39;;;;;;;5.90;4.78;;;;;;;;;;5095199;28;20282;-66
2023/09/14 13:13:07;;;;;;;5.22;4.80;;;;;;;;;;5089905;28;20205;-66
2023/09/14 13:15:34;;;;;;;6.15;4.43;;;;;;;;;;5092450;28;20719;-66
2023/09/14 13:18:02;;;;;;;9.10;4.95;;;;;;;;;;5091664;28;20246;-66
2023/09/14 13:20:30;;;;;;;7.70;5.05;;;;;;;;;;5096712;28;20593;-65
2023/09/14 13:22:58;;;;;;;9.25;4.63;;;;;;;;;;5087649;28;20197;-67
2023/09/14 13:25:25;;;;;;;9.70;4.47;;;;;;;;;;5093281;28;20250;-66
2023/09/14 13:27:52;;;;;;;9.05;5.43;;;;;;;;;;5090990;28;20232;-65
2023/09/14 13:30:18;;;;;;;9.48;4.68;;;;;;;;;;5088986;28;20198;-65
2023/09/14 13:32:45;;;;;;;5.32;4.55;;;;;;;;;;5089815;28;20912;-65
2023/09/14 13:35:12;;;;;;;6.53;4.57;;;;;;;;;;5090259;28;20251;-65
2023/09/14 13:37:39;;;;;;;11.55;5.00;;;;;;;;;;5096800;28;20224;-66
2023/09/14 13:40:14;;;;;;;5.63;5.13;;;;;;;;;;5091963;28;20201;-65
2023/09/14 13:42:41;;;;;;;6.70;4.15;;;;;;;;;;5090862;28;20193;-66
2023/09/14 13:45:08;;;;;;;7.32;4.85;;;;;;;;;;5087495;28;20202;-63
2023/09/14 13:47:34;;;;;;;8.30;4.90;;;;;;;;;;5087280;28;20261;-64
2023/09/14 13:50:01;;;;;;;8.43;4.65;;;;;;;;;;5089241;28;20202;-63
2023/09/14 13:52:27;;;;;;;5.47;4.85;;;;;;;;;;5094164;28;20252;-64
2023/09/14 13:54:54;;;;;;;7.88;4.10;;;;;;;;;;5092154;28;20622;-63
2023/09/14 13:57:22;;;;;;;5.22;4.72;;;;;;;;;;5091556;28;20232;-64
2023/09/14 13:59:49;;;;;;;8.65;4.40;;;;;;;;;;5090183;28;20202;-64
2023/09/14 14:02:15;;;;;;;7.53;5.03;;;;;;;;;;5096443;28;20236;-64
2023/09/14 14:04:42;;;;;;;7.45;4.13;;;;;;;;;;5103840;28;20687;-66
2023/09/14 14:07:09;;;;;;;7.72;5.10;;;;;;;;;;5093447;28;20221;-63
2023/09/14 14:09:35;;;;;;;7.10;4.60;;;;;;;;;;5097896;28;20246;-64
2023/09/14 14:12:02;;;;;;;7.07;4.65;;;;;;;;;;5095384;28;20223;-65
2023/09/14 14:14:30;;;;;;;5.53;4.38;;;;;;;;;;5097326;28;20225;-64
2023/09/14 14:16:57;;;;;;;4.85;4.40;;;;;;;;;;5099033;28;20253;-64
2023/09/14 14:19:23;;;;;;;11.30;5.25;;;;;;;;;;5092287;28;20198;-64
2023/09/14 14:21:50;;;;;;;7.13;3.97;;;;;;;;;;5092019;28;20626;-64
2023/09/14 14:24:16;;;;;;;8.50;5.65;;;;;;;;;;5095046;28;20629;-64
2023/09/14 14:26:43;;;;;;;11.00;5.63;;;;;;;;;;5094393;28;20242;-64
2023/09/14 14:29:10;;;;;;;9.20;4.95;;;;;;;;;;5098345;28;20197;-64
2023/09/14 14:31:38;;;;;;;8.30;5.82;;;;;;;;;;5094574;28;20259;-64
2023/09/14 14:34:05;;;;;;;5.47;4.97;;;;;;;;;;5096582;28;20225;-65
2023/09/14 14:36:32;;;;;;;9.75;5.63;;;;;;;;;;5094047;28;20253;-65
2023/09/14 14:38:58;;;;;;;8.93;5.30;;;;;;;;;;5101518;28;20197;-64
2023/09/14 14:41:25;;;;;;;6.97;4.82;;;;;;;;;;5103217;28;20236;-65
2023/09/14 14:43:52;;;;;;;7.40;4.65;;;;;;;;;;5094593;28;20209;-66
2023/09/14 14:46:19;;;;;;;5.13;4.57;;;;;;;;;;5095562;28;20193;-63
2023/09/14 14:48:47;;;;;;;6.03;5.43;;;;;;;;;;5092257;28;20216;-64
2023/09/14 14:51:13;;;;;;;7.05;4.72;;;;;;;;;;5093002;28;20489;-66
2023/09/14 14:53:41;;;;;;;11.55;5.20;;;;;;;;;;5095790;28;20218;-66